Flight Track Log - Related Links

Times and Time Zones

All times are in EDT time to prevent confusion due to time zone crossing. See the N900SK flight status page for this flight to view local times or setup timezone preferences in your user account.

Time Position Orientation Groundspeed Altitude Reporting Facility
EDT Latitude Longitude Course Direction KTS MPH feet Rate Location/Type
Thu 10:25:15 AM 33.7504 -117.9337 172° South  Level FlightAware
Thu 10:26:37 AM 33.5500 -117.9000 212° Southwest 258 297 7,600  Level Southern TRACON
Thu 10:27:37 AM 33.4833 -117.9500 211° Southwest 276 318 11,100 2,551 Climbing Southern TRACON
Thu 10:28:44 AM 33.4094 -118.0025 224° Southwest 297 342 13,000 1,370 Climbing Los Center
Thu 10:29:44 AM 33.3478 -118.0731 271° West 303 349 14,000 1,250 Climbing Los Center
Thu 10:30:44 AM 33.3486 -118.1603 277° West 270 311 15,500 1,000 Climbing Los Center
Thu 10:31:44 AM 33.3592 -118.2672 304° West 289 333 16,000 1,050 Climbing Los Center
Thu 10:32:44 AM 33.4097 -118.3558 353° North 306 352 17,600 1,500 Climbing Los Center
Thu 10:33:44 AM 33.5139 -118.3708 352° North 298 343 19,000 1,750 Climbing Los Center
Thu 10:34:44 AM 33.6158 -118.3886 354° North 333 383 21,100 2,050 Climbing Los Center
Thu 10:35:44 AM 33.7178 -118.4014 351° North 343 395 23,100 2,000 Climbing Los Center
Thu 10:36:44 AM 33.8342 -118.4244 353° North 379 436 25,100 1,700 Climbing Los Center
Thu 10:37:44 AM 33.9239 -118.4369 341° North 379 436 26,500 1,550 Climbing Los Center
Thu 10:38:44 AM 34.0211 -118.4769 337° Northwest 374 430 28,200 1,700 Climbing Los Center
Thu 10:39:44 AM 34.1181 -118.5275 338° Northwest 368 423 29,900 1,750 Climbing Los Center
Thu 10:40:44 AM 34.2175 -118.5756 338° Northwest 373 429 31,700 1,750 Climbing Los Center
Thu 10:41:44 AM 34.3144 -118.6236 338° Northwest 373 429 33,400 1,150 Climbing Los Center
Thu 10:42:44 AM 34.4261 -118.6772 337° Northwest 373 429 34,000 300 Climbing Los Center
Thu 10:43:44 AM 34.5294 -118.7308 338° Northwest 389 448 34,000  Level Los Center
Thu 10:44:44 AM 34.6408 -118.7850 338° Northwest 402 463 34,000  Level Los Center
Thu 10:45:44 AM 34.7481 -118.8389 339° North 413 475 34,000  Level Los Center
Thu 10:46:45 AM 34.8575 -118.8906 343° North 413 475 34,000  Level Los Center
Thu 10:47:44 AM 34.9589 -118.9294 340° North 418 481 34,000  Level Los Center
Thu 10:48:44 AM 35.0725 -118.9792 340° North 418 481 34,000  Level Los Center
Thu 10:49:44 AM 35.1819 -119.0286 340° North 423 487 34,000  Level Los Center
Thu 10:50:44 AM 35.2936 -119.0783 339° North 423 487 34,000  Level Los Center
Thu 10:51:44 AM 35.4069 -119.1308 339° North 423 487 34,000  Level Los Center
Thu 10:53:21 AM 35.5886 -119.2144 340° North 410 472 34,000  Level Oakland Center
Thu 10:54:21 AM 35.7019 -119.2656 336° Northwest 416 479 34,000  Level Oakland Center
Thu 10:55:21 AM 35.8114 -119.3247 335° Northwest 421 484 34,000  Level Oakland Center
Thu 10:56:22 AM 35.9186 -119.3864 334° Northwest 416 479 34,000  Level Oakland Center
Thu 10:57:21 AM 36.0236 -119.4511 333° Northwest 427 491 34,000  Level Oakland Center
Thu 10:58:21 AM 36.1289 -119.5183 333° Northwest 432 497 34,000  Level Oakland Center
Thu 10:59:21 AM 36.2467 -119.5933 333° Northwest 432 497 34,000  Level Oakland Center
Thu 11:00:21 AM 36.3517 -119.6611 333° Northwest 432 497 34,000  Level Oakland Center
Thu 11:01:21 AM 36.4608 -119.7317 332° Northwest 437 503 34,000  Level Oakland Center
Thu 11:02:21 AM 36.5450 -119.7869 332° Northwest 437 503 34,000  Level Oakland Center
Thu 11:03:21 AM 36.6731 -119.8731 336° Northwest 437 503 34,000  Level Oakland Center
Thu 11:04:21 AM 36.7758 -119.9311 331° Northwest 437 503 34,000 -50 Level Oakland Center
Thu 11:05:21 AM 36.8911 -120.0103 334° Northwest 437 503 33,900 -1,000 Descending Oakland Center
Thu 11:06:21 AM 36.9814 -120.0661 333° Northwest 425 489 32,000 -1,800 Descending Oakland Center
Thu 11:07:21 AM 37.0797 -120.1300 332° Northwest 401 461 30,300 -1,750 Descending Oakland Center
Thu 11:08:21 AM 37.1783 -120.1967 332° Northwest 396 456 28,500 -1,950 Descending Oakland Center
Thu 11:09:21 AM 37.2872 -120.2686 333° Northwest 396 456 26,400 -1,900 Descending Oakland Center
Thu 11:10:21 AM 37.3878 -120.3331 325° Northwest 396 456 24,700 -1,900 Descending Oakland Center
Thu 11:11:21 AM 37.4758 -120.4108 321° Northwest 396 456 22,600 -2,150 Descending Oakland Center
Thu 11:12:21 AM 37.5575 -120.4942 328° Northwest 385 443 20,400 -1,600 Descending Oakland Center
Thu 11:13:21 AM 37.6433 -120.5617 321° Northwest 379 436 19,400 -1,300 Descending Oakland Center
Thu 11:14:21 AM 37.7247 -120.6453 322° Northwest 374 430 17,800 -1,650 Descending Oakland Center
Thu 11:15:21 AM 37.8003 -120.7211 320° Northwest 368 423 16,100 -1,686 Descending Oakland Center
Thu 11:16:22 AM 37.8753 -120.7997 321° Northwest 357 411 14,400 -1,050 Descending Oakland Center
Thu 11:17:21 AM 37.9528 -120.8786 344° North 352 405 14,000 -303 Descending Oakland Center
Thu 11:18:21 AM 38.0486 -120.9128 358° North 352 405 13,800 -956 Descending Oakland Center
Thu 11:19:14 AM 38.1500 -120.9167 345° North 370 426 12,200 -1,912 Descending Northern TRACON
Thu 11:20:14 AM 38.2500 -120.9500 339° North 364 419 10,200 -1,895 Descending Northern TRACON
Thu 11:21:08 AM 38.3167 -120.9833 330° Northwest 306 352 8,600 -1,684 Descending Northern TRACON
Thu 11:22:08 AM 38.3833 -121.0333 330° Northwest 264 304 7,000 -1,600 Descending Northern TRACON
Thu 11:23:08 AM 38.4500 -121.0833 339° North 266 306 5,400 -1,400 Descending Northern TRACON
Thu 11:24:08 AM 38.5167 -121.1167 332° Northwest 263 303 4,200 -1,211 Descending Northern TRACON
Thu 11:25:02 AM 38.5667 -121.1500 332° Northwest 244 281 3,100 -737 Descending Northern TRACON
Thu 11:26:02 AM 38.6167 -121.1833 333° Northwest 208 239 2,800 -350 Descending Northern TRACON
Thu 11:27:02 AM 38.6667 -121.2167 333° Northwest 202 232 2,400 -397 Descending Northern TRACON
Thu 11:28:03 AM 38.7167 -121.2500 311° West 188 216 2,000 -198 Descending Northern TRACON
Thu 11:29:03 AM 38.7500 -121.3000 270° West 175 201 2,000 -105 Level Northern TRACON
Thu 11:29:57 AM 38.7500 -121.3667 218° Southwest 162 186 1,800 -579 Descending Northern TRACON
Thu 11:30:57 AM 38.7167 -121.4000 180° South 137 158 900 -800 Descending Northern TRACON
Thu 11:31:57 AM 38.6833 -121.4000 180° South 118 136 200 -700 Descending Northern TRACON

Login

Don't have an account? Register now (free) for customized features, flight alerts, and more!